createdAt,value
2022-10-07T00:02:05.635Z,5.05
2022-10-07T00:04:32.666Z,4.28
2022-10-07T00:06:59.257Z,4.95
2022-10-07T00:09:25.906Z,6.00
2022-10-07T00:11:52.554Z,5.50
2022-10-07T00:14:19.146Z,5.63
2022-10-07T00:16:45.837Z,5.15
2022-10-07T00:19:13.852Z,5.35
2022-10-07T00:21:40.809Z,5.50
2022-10-07T00:24:08.449Z,5.60
2022-10-07T00:26:36.937Z,4.97
2022-10-07T00:29:07.108Z,4.47
2022-10-07T00:31:35.823Z,5.50
2022-10-07T00:34:03.959Z,5.68
2022-10-07T00:36:33.690Z,5.22
2022-10-07T00:39:03.133Z,5.38
2022-10-07T00:41:33.226Z,5.07
2022-10-07T00:44:20.476Z,5.00
2022-10-07T00:46:47.736Z,5.10
2022-10-07T00:49:14.660Z,4.97
2022-10-07T00:51:43.574Z,4.20
2022-10-07T00:54:14.576Z,4.30
2022-10-07T00:56:42.322Z,5.47
2022-10-07T00:59:09.884Z,5.40
2022-10-07T01:01:36.657Z,5.22
2022-10-07T01:04:04.153Z,4.75
2022-10-07T01:06:30.784Z,4.90
2022-10-07T01:08:57.674Z,5.47
2022-10-07T01:11:46.190Z,5.07
2022-10-07T01:14:19.691Z,5.43
2022-10-07T01:16:55.597Z,4.70
2022-10-07T01:20:02.035Z,5.22
2022-10-07T01:22:41.843Z,5.47
2022-10-07T01:25:32.283Z,4.50
2022-10-07T01:28:06.242Z,5.00
2022-10-07T01:30:37.098Z,5.07
2022-10-07T01:33:11.335Z,5.53
2022-10-07T01:35:42.510Z,5.60
2022-10-07T01:38:12.797Z,5.32
2022-10-07T01:40:46.410Z,5.18
2022-10-07T01:43:19.969Z,5.30
2022-10-07T01:45:48.964Z,5.60
2022-10-07T01:48:15.878Z,5.57
2022-10-07T01:50:43.204Z,5.20
2022-10-07T01:53:29.848Z,5.22
2022-10-07T01:56:21.287Z,5.22
2022-10-07T01:59:18.316Z,6.35
2022-10-07T02:02:01.105Z,5.45
2022-10-07T02:04:39.320Z,5.65
2022-10-07T02:07:17.638Z,5.70
2022-10-07T02:09:48.720Z,6.10
2022-10-07T02:12:34.282Z,6.18
2022-10-07T02:15:16.999Z,5.72
2022-10-07T02:17:50.096Z,6.28
2022-10-07T02:20:19.569Z,6.22
2022-10-07T02:22:49.867Z,6.07
2022-10-07T02:25:19.957Z,6.57
2022-10-07T02:27:50.561Z,5.95
2022-10-07T02:30:20.333Z,5.78
2022-10-07T02:32:54.003Z,5.97
2022-10-07T02:35:28.631Z,6.22
2022-10-07T02:37:58.349Z,6.30
2022-10-07T02:40:32.241Z,5.95
2022-10-07T02:43:06.547Z,6.00
2022-10-07T02:45:51.704Z,5.97
2022-10-07T02:48:32.324Z,7.07
2022-10-07T02:51:03.912Z,6.80
2022-10-07T02:53:33.203Z,6.63
2022-10-07T02:56:02.293Z,7.20
2022-10-07T02:58:28.973Z,7.35
2022-10-07T03:01:00.183Z,8.18
2022-10-07T03:03:28.190Z,6.30
2022-10-07T03:05:55.120Z,7.18
2022-10-07T03:08:22.383Z,7.00
2022-10-07T03:10:49.021Z,7.82
2022-10-07T03:13:15.769Z,7.55
2022-10-07T03:15:43.183Z,7.18
2022-10-07T03:18:26.472Z,6.90
2022-10-07T03:20:55.457Z,6.68
2022-10-07T03:23:24.739Z,6.25
2022-10-07T03:25:54.477Z,5.90
2022-10-07T03:28:23.822Z,6.90
2022-10-07T03:30:51.502Z,7.10
2022-10-07T03:33:20.132Z,7.65
2022-10-07T03:35:46.856Z,7.88
2022-10-07T03:38:13.490Z,8.35
2022-10-07T03:40:43.480Z,8.10
2022-10-07T03:43:10.171Z,7.65
2022-10-07T03:45:43.648Z,7.75
2022-10-07T03:48:10.372Z,8.02
2022-10-07T03:50:38.154Z,9.07
2022-10-07T03:53:05.133Z,9.18
2022-10-07T03:55:31.698Z,9.27
2022-10-07T03:57:59.672Z,9.63
2022-10-07T04:00:27.514Z,9.63
2022-10-07T04:02:57.522Z,9.93
2022-10-07T04:05:24.184Z,10.07
2022-10-07T04:07:52.232Z,11.10
2022-10-07T04:10:19.789Z,10.10
2022-10-07T04:12:48.675Z,10.85
2022-10-07T04:15:15.731Z,11.45
2022-10-07T04:17:44.875Z,12.40
2022-10-07T04:20:13.283Z,15.55
2022-10-07T04:22:39.983Z,14.52
2022-10-07T04:25:23.405Z,12.75
2022-10-07T04:27:53.909Z,13.10
2022-10-07T04:30:22.315Z,11.88
2022-10-07T04:32:50.719Z,12.48
2022-10-07T04:35:20.204Z,11.85
2022-10-07T04:37:48.890Z,11.32
2022-10-07T04:40:15.938Z,11.30
2022-10-07T04:42:57.864Z,10.95
2022-10-07T04:45:25.270Z,11.20
2022-10-07T04:47:51.946Z,11.00
2022-10-07T04:50:18.592Z,12.50
2022-10-07T04:52:46.491Z,10.75
2022-10-07T04:55:14.321Z,10.82
2022-10-07T04:57:41.676Z,10.98
2022-10-07T05:00:09.465Z,10.55
2022-10-07T05:02:36.518Z,10.10
2022-10-07T05:05:04.029Z,9.70
2022-10-07T05:07:32.439Z,10.18
2022-10-07T05:09:59.560Z,9.88
2022-10-07T05:12:26.661Z,9.02
2022-10-07T05:14:53.378Z,8.43
2022-10-07T05:17:20.528Z,8.13
2022-10-07T05:19:47.599Z,8.27
2022-10-07T05:22:14.269Z,8.25
2022-10-07T05:24:40.905Z,8.52
2022-10-07T05:27:07.575Z,8.57
2022-10-07T05:29:34.222Z,9.15
2022-10-07T05:32:04.812Z,8.82
2022-10-07T05:34:32.030Z,9.38
2022-10-07T05:36:59.418Z,10.10
2022-10-07T05:39:26.115Z,10.27
2022-10-07T05:41:52.834Z,10.38
2022-10-07T05:44:21.711Z,11.07
2022-10-07T05:46:48.594Z,10.68
2022-10-07T05:49:15.714Z,13.07
2022-10-07T05:51:42.454Z,12.32
2022-10-07T05:54:09.097Z,12.90
2022-10-07T05:56:37.657Z,14.27
2022-10-07T05:59:04.652Z,14.82
2022-10-07T06:01:31.475Z,12.98
2022-10-07T06:03:58.221Z,15.10
2022-10-07T06:06:28.118Z,13.98
2022-10-07T06:08:54.835Z,12.23
2022-10-07T06:11:36.758Z,13.65
2022-10-07T06:14:04.461Z,12.60
2022-10-07T06:16:31.480Z,13.80
2022-10-07T06:18:58.232Z,14.27
2022-10-07T06:21:28.061Z,14.27
2022-10-07T06:23:57.003Z,15.93
2022-10-07T06:26:24.234Z,14.95
2022-10-07T06:28:51.155Z,15.85
2022-10-07T06:31:26.419Z,14.68
2022-10-07T06:33:53.214Z,13.93
2022-10-07T06:36:19.875Z,16.17
2022-10-07T06:38:50.994Z,14.98
2022-10-07T06:41:18.331Z,16.23
2022-10-07T06:43:45.272Z,17.92
2022-10-07T06:46:16.168Z,17.65
2022-10-07T06:48:44.582Z,17.70
2022-10-07T06:51:15.383Z,19.98
2022-10-07T06:53:42.538Z,19.42
2022-10-07T06:56:11.693Z,21.25
2022-10-07T06:58:38.283Z,21.92
2022-10-07T07:01:06.248Z,25.52
2022-10-07T07:03:33.090Z,26.88
2022-10-07T07:05:59.734Z,28.55
2022-10-07T07:08:29.119Z,29.50
2022-10-07T07:10:56.543Z,29.52
2022-10-07T07:13:24.709Z,27.73
2022-10-07T07:15:57.159Z,30.50
2022-10-07T07:18:24.653Z,32.95
2022-10-07T07:20:51.871Z,32.25
2022-10-07T07:23:19.164Z,30.83
2022-10-07T07:25:47.444Z,34.25
2022-10-07T07:28:15.750Z,38.88
2022-10-07T07:30:42.892Z,37.45
2022-10-07T07:33:10.067Z,35.45
2022-10-07T07:35:41.260Z,35.00
2022-10-07T07:38:08.776Z,35.75
2022-10-07T07:40:39.670Z,35.90
2022-10-07T07:43:07.341Z,36.95
2022-10-07T07:45:36.863Z,36.85
2022-10-07T07:48:04.540Z,36.33
2022-10-07T07:50:31.160Z,34.22
2022-10-07T07:53:00.182Z,35.03
2022-10-07T07:55:26.884Z,33.20
2022-10-07T07:57:53.510Z,35.45
2022-10-07T08:00:20.165Z,36.55
2022-10-07T08:02:50.039Z,35.78
2022-10-07T08:05:23.723Z,38.30
2022-10-07T08:07:51.881Z,38.00
2022-10-07T08:10:18.711Z,38.28
2022-10-07T08:12:45.317Z,36.65
2022-10-07T08:15:12.046Z,34.30
2022-10-07T08:17:38.684Z,35.20
2022-10-07T08:20:05.771Z,35.92
2022-10-07T08:22:33.708Z,36.72
2022-10-07T08:25:00.399Z,37.45
2022-10-07T08:27:28.270Z,38.10
2022-10-07T08:29:54.890Z,39.83
2022-10-07T08:32:21.493Z,39.75
2022-10-07T08:34:48.109Z,40.42
2022-10-07T08:37:14.729Z,38.47
2022-10-07T08:39:41.343Z,37.28
2022-10-07T08:42:20.428Z,37.25
2022-10-07T08:44:49.557Z,36.05
2022-10-07T08:47:38.684Z,38.38
2022-10-07T08:50:19.540Z,24.20
2022-10-07T08:52:55.987Z,24.88
2022-10-07T08:58:06.485Z,24.63
2022-10-07T09:00:59.315Z,24.52
2022-10-07T09:03:26.925Z,24.92
2022-10-07T09:05:55.721Z,25.13
2022-10-07T09:08:28.713Z,25.13
2022-10-07T09:11:02.467Z,25.33
2022-10-07T09:13:40.402Z,25.23
2022-10-07T09:16:14.191Z,23.98
2022-10-07T09:18:59.712Z,23.85
2022-10-07T09:21:42.367Z,24.52
2022-10-07T09:24:16.247Z,24.05
2022-10-07T09:26:43.238Z,24.20
2022-10-07T09:29:10.799Z,24.23
2022-10-07T09:31:39.079Z,25.02
2022-10-07T09:34:06.796Z,24.95
2022-10-07T09:36:33.482Z,26.63
2022-10-07T09:39:22.590Z,24.73
2022-10-07T09:41:49.447Z,26.38
2022-10-07T09:44:16.027Z,26.30
2022-10-07T09:46:59.524Z,26.80
2022-10-07T09:49:27.246Z,26.60
2022-10-07T09:52:23.305Z,27.50
2022-10-07T09:54:52.630Z,27.98
2022-10-07T09:57:35.751Z,26.77
2022-10-07T10:00:26.215Z,26.63
2022-10-07T10:03:10.126Z,28.35
2022-10-07T10:05:41.450Z,28.35
2022-10-07T10:08:25.805Z,28.17
2022-10-07T10:10:55.729Z,28.30
2022-10-07T10:13:27.171Z,27.95
2022-10-07T10:15:53.873Z,26.73
2022-10-07T10:18:30.761Z,26.98
2022-10-07T10:21:14.823Z,29.20
2022-10-07T10:23:47.901Z,26.52
2022-10-07T10:26:41.998Z,27.42
2022-10-07T10:29:37.691Z,27.65
2022-10-07T10:32:15.759Z,27.52
2022-10-07T10:35:06.657Z,26.05
2022-10-07T10:38:04.231Z,25.67
2022-10-07T10:40:53.825Z,26.17
2022-10-07T10:43:34.298Z,26.80
2022-10-07T10:46:19.164Z,25.63
2022-10-07T10:48:55.586Z,25.85
2022-10-07T10:51:42.605Z,26.15
2022-10-07T10:54:17.972Z,26.48
2022-10-07T10:56:56.945Z,26.02
2022-10-07T10:59:45.586Z,25.98
2022-10-07T11:02:52.465Z,24.02
2022-10-07T11:05:32.247Z,24.77
2022-10-07T11:08:10.652Z,24.13
2022-10-07T11:10:47.386Z,22.08
2022-10-07T11:13:15.649Z,22.88
2022-10-07T11:15:47.758Z,22.50
2022-10-07T11:18:35.347Z,22.67
2022-10-07T11:21:07.933Z,22.90
2022-10-07T11:23:47.684Z,22.67
2022-10-07T11:26:15.297Z,22.38
2022-10-07T11:28:44.572Z,22.60
2022-10-07T11:31:24.454Z,22.45
2022-10-07T11:34:14.012Z,21.67
2022-10-07T11:36:54.013Z,21.60
2022-10-07T11:39:21.798Z,22.42
2022-10-07T11:41:56.776Z,22.95
2022-10-07T11:44:31.474Z,21.17
2022-10-07T11:47:03.016Z,22.35
2022-10-07T11:49:39.182Z,20.90
2022-10-07T11:52:10.824Z,20.05
2022-10-07T11:54:43.441Z,20.70
2022-10-07T11:57:21.829Z,21.02
2022-10-07T11:59:58.030Z,19.27
2022-10-07T12:05:04.003Z,20.30
2022-10-07T12:08:04.293Z,20.95
2022-10-07T12:10:33.571Z,20.50
2022-10-07T12:13:15.537Z,19.80
2022-10-07T12:15:43.583Z,18.45
2022-10-07T12:18:11.159Z,19.50
2022-10-07T12:20:53.202Z,20.67
2022-10-07T12:23:20.347Z,18.90
2022-10-07T12:25:49.654Z,20.30
2022-10-07T12:28:19.198Z,20.95
2022-10-07T12:30:55.548Z,22.52
2022-10-07T12:33:28.080Z,22.35
2022-10-07T12:35:55.195Z,21.20
2022-10-07T12:38:24.477Z,22.00
2022-10-07T12:41:07.360Z,21.35
2022-10-07T12:43:45.998Z,20.67
2022-10-07T12:46:16.991Z,19.60
2022-10-07T12:48:58.651Z,19.63
2022-10-07T12:51:30.337Z,20.55
2022-10-07T12:53:59.854Z,20.17
2022-10-07T12:56:30.277Z,22.02
2022-10-07T12:59:19.861Z,22.13
2022-10-07T13:02:24.218Z,23.08
2022-10-07T13:05:26.017Z,21.10
2022-10-07T13:08:26.781Z,21.33
2022-10-07T13:11:08.669Z,21.58
2022-10-07T13:13:52.167Z,22.30
2022-10-07T13:16:27.458Z,21.10
2022-10-07T13:19:29.391Z,21.67
2022-10-07T13:22:05.629Z,21.40
2022-10-07T13:27:00.157Z,21.35
2022-10-07T13:29:33.412Z,22.77
2022-10-07T13:32:15.040Z,21.38
2022-10-07T13:34:43.301Z,21.88
2022-10-07T13:37:31.280Z,22.58
2022-10-07T13:40:19.224Z,22.23
2022-10-07T13:42:46.370Z,22.15
2022-10-07T13:45:15.804Z,22.52
2022-10-07T13:47:46.904Z,22.77
2022-10-07T13:50:20.204Z,22.73
2022-10-07T13:52:49.855Z,21.80
2022-10-07T13:55:33.084Z,22.98
2022-10-07T13:58:04.290Z,21.52
2022-10-07T14:00:36.014Z,21.40
2022-10-07T14:03:13.767Z,20.63
2022-10-07T14:05:56.375Z,21.67
2022-10-07T14:08:27.837Z,21.08
2022-10-07T14:11:02.572Z,21.67
2022-10-07T14:13:30.977Z,21.77
2022-10-07T14:15:59.391Z,22.17
2022-10-07T14:18:31.841Z,22.60
2022-10-07T14:21:17.412Z,21.35
2022-10-07T14:23:47.041Z,21.60
2022-10-07T14:26:16.267Z,20.90
2022-10-07T14:28:43.369Z,21.90
2022-10-07T14:31:33.031Z,20.70
2022-10-07T14:34:15.860Z,20.65
2022-10-07T14:37:13.786Z,21.42
2022-10-07T14:39:42.855Z,19.83
2022-10-07T14:42:13.883Z,20.75
2022-10-07T14:44:44.587Z,21.80
2022-10-07T14:47:17.611Z,20.25
2022-10-07T14:49:44.658Z,21.33
2022-10-07T14:52:20.076Z,22.33
2022-10-07T14:54:47.297Z,20.77
2022-10-07T14:57:14.038Z,23.10
2022-10-07T14:59:40.659Z,22.73
2022-10-07T15:02:07.284Z,23.30
2022-10-07T15:04:34.041Z,23.52
2022-10-07T15:07:00.761Z,22.23
2022-10-07T15:09:27.402Z,22.15
2022-10-07T15:11:54.065Z,22.73
2022-10-07T15:14:21.029Z,22.13
2022-10-07T15:16:47.703Z,22.23
2022-10-07T15:19:15.261Z,23.38
2022-10-07T15:21:42.082Z,25.30
2022-10-07T15:24:08.661Z,24.27
2022-10-07T15:26:35.321Z,25.95
2022-10-07T15:29:01.924Z,25.15
2022-10-07T15:31:30.097Z,25.65
2022-10-07T15:33:57.938Z,25.58
2022-10-07T15:36:26.692Z,24.95
2022-10-07T15:38:53.531Z,26.55
2022-10-07T15:41:39.896Z,25.65
2022-10-07T15:44:13.754Z,26.83
2022-10-07T15:46:40.524Z,25.33
2022-10-07T15:49:07.594Z,25.55
2022-10-07T15:51:36.364Z,26.77
2022-10-07T15:54:04.604Z,26.27
2022-10-07T15:56:31.803Z,26.00
2022-10-07T15:59:00.471Z,26.50
2022-10-07T16:01:31.508Z,25.58
2022-10-07T16:03:59.908Z,25.50
2022-10-07T16:06:33.668Z,26.17
2022-10-07T16:09:04.670Z,26.83
2022-10-07T16:11:33.300Z,25.55
2022-10-07T16:14:02.030Z,27.15
2022-10-07T16:16:31.442Z,24.80
2022-10-07T16:19:00.113Z,26.42
2022-10-07T16:21:31.014Z,27.65
2022-10-07T16:24:01.855Z,24.63
2022-10-07T16:26:30.309Z,25.48
2022-10-07T16:29:14.763Z,25.75
2022-10-07T16:31:42.950Z,26.05
2022-10-07T16:34:13.449Z,25.45
2022-10-07T16:36:45.369Z,24.77
2022-10-07T16:39:12.763Z,27.67
2022-10-07T16:41:42.623Z,28.13
2022-10-07T16:44:09.319Z,26.92
2022-10-07T16:46:36.546Z,29.13
2022-10-07T16:49:06.103Z,27.38
2022-10-07T16:51:36.302Z,26.88
2022-10-07T16:54:07.441Z,27.33
2022-10-07T16:56:35.851Z,26.23
2022-10-07T16:59:05.206Z,28.20
2022-10-07T17:01:32.731Z,28.58
2022-10-07T17:04:01.154Z,29.08
2022-10-07T17:06:30.254Z,28.48
2022-10-07T17:09:01.303Z,27.55
2022-10-07T17:11:28.880Z,28.35
2022-10-07T17:13:59.080Z,27.83
2022-10-07T17:16:27.543Z,27.90
2022-10-07T17:18:54.417Z,28.38
2022-10-07T17:21:22.006Z,27.65
2022-10-07T17:23:49.494Z,27.63
2022-10-07T17:26:17.437Z,27.00
2022-10-07T17:28:44.331Z,28.73
2022-10-07T17:31:13.110Z,28.52
2022-10-07T17:33:42.369Z,28.77
2022-10-07T17:36:11.063Z,28.80
2022-10-07T17:38:43.594Z,28.02
2022-10-07T17:41:20.813Z,27.75
2022-10-07T17:43:48.989Z,26.40
2022-10-07T17:46:17.610Z,26.77
2022-10-07T17:48:45.753Z,27.70
2022-10-07T17:51:15.224Z,27.63
2022-10-07T17:53:42.874Z,26.17
2022-10-07T17:56:12.703Z,26.75
2022-10-07T17:58:40.905Z,26.02
2022-10-07T18:01:12.532Z,27.45
2022-10-07T18:03:41.216Z,26.83
2022-10-07T18:06:08.840Z,25.85
2022-10-07T18:08:36.621Z,26.13
2022-10-07T18:11:03.856Z,27.33
2022-10-07T18:13:48.313Z,27.30
2022-10-07T18:16:15.816Z,26.45
2022-10-07T18:18:43.104Z,26.80
2022-10-07T18:21:10.553Z,27.15
2022-10-07T18:23:37.833Z,26.35
2022-10-07T18:26:06.125Z,25.63
2022-10-07T18:28:40.773Z,26.26
2022-10-07T18:31:12.005Z,24.15
2022-10-07T18:33:38.994Z,26.98
2022-10-07T18:36:13.987Z,26.23
2022-10-07T18:38:43.513Z,27.13
2022-10-07T18:41:13.396Z,28.42
2022-10-07T18:43:41.597Z,27.38
2022-10-07T18:46:14.125Z,26.77
2022-10-07T18:48:42.248Z,27.48
2022-10-07T18:51:11.173Z,28.67
2022-10-07T18:53:40.049Z,30.23
2022-10-07T18:56:11.574Z,29.88
2022-10-07T18:58:41.229Z,27.40
2022-10-07T19:01:08.047Z,29.35
2022-10-07T19:03:34.996Z,27.70
2022-10-07T19:06:12.252Z,29.25
2022-10-07T19:08:39.322Z,31.08
2022-10-07T19:11:07.620Z,29.48
2022-10-07T19:13:51.071Z,30.42
2022-10-07T19:16:20.208Z,28.55
2022-10-07T19:18:48.690Z,29.90
2022-10-07T19:21:18.088Z,31.20
2022-10-07T19:23:44.956Z,32.55
2022-10-07T19:26:12.737Z,31.52
2022-10-07T19:28:40.709Z,32.75
2022-10-07T19:31:23.802Z,34.22
2022-10-07T19:33:52.939Z,34.10
2022-10-07T19:36:20.764Z,33.75
2022-10-07T19:38:52.347Z,34.90
2022-10-07T19:41:22.628Z,38.70
2022-10-07T19:43:49.781Z,39.28
2022-10-07T19:46:19.181Z,42.08
2022-10-07T19:48:46.120Z,41.00
2022-10-07T19:51:15.507Z,41.75
2022-10-07T19:53:46.880Z,40.13
2022-10-07T19:56:20.229Z,38.55
2022-10-07T19:58:49.676Z,39.88
2022-10-07T20:01:19.729Z,39.90
2022-10-07T20:03:47.321Z,37.60
2022-10-07T20:06:14.871Z,36.28
2022-10-07T20:08:46.597Z,37.55
2022-10-07T20:11:17.832Z,38.13
2022-10-07T20:13:44.511Z,40.45
2022-10-07T20:16:16.293Z,38.15
2022-10-07T20:18:44.015Z,42.60
2022-10-07T20:21:14.105Z,45.60
2022-10-07T20:23:43.080Z,46.28
2022-10-07T20:26:12.236Z,47.38
2022-10-07T20:28:38.973Z,45.17
2022-10-07T20:31:08.155Z,48.25
2022-10-07T20:33:40.446Z,45.85
2022-10-07T20:36:08.434Z,45.70
2022-10-07T20:38:52.859Z,45.45
2022-10-07T20:41:34.904Z,44.30
2022-10-07T20:44:01.905Z,46.33
2022-10-07T20:46:28.557Z,46.75
2022-10-07T20:48:55.245Z,47.28
2022-10-07T20:51:22.921Z,44.03
2022-10-07T20:53:50.911Z,45.50
2022-10-07T20:56:18.560Z,46.55
2022-10-07T20:58:45.624Z,44.92
2022-10-07T21:01:12.976Z,49.08
2022-10-07T21:03:40.133Z,48.40
2022-10-07T21:06:07.045Z,48.42
2022-10-07T21:08:33.689Z,47.75
2022-10-07T21:11:02.295Z,49.33
2022-10-07T21:13:30.452Z,48.40
2022-10-07T21:15:57.647Z,46.95
2022-10-07T21:18:26.555Z,50.58
2022-10-07T21:20:56.758Z,49.90
2022-10-07T21:23:25.082Z,47.40
2022-10-07T21:25:52.207Z,50.03
2022-10-07T21:28:19.363Z,47.92
2022-10-07T21:30:55.939Z,49.35
2022-10-07T21:33:22.649Z,47.17
2022-10-07T21:35:49.223Z,45.55
2022-10-07T21:38:15.826Z,50.30
2022-10-07T21:40:42.558Z,51.83
2022-10-07T21:43:09.180Z,50.08
2022-10-07T21:45:35.772Z,49.20
2022-10-07T21:48:02.389Z,47.03
2022-10-07T21:50:28.988Z,46.55
2022-10-07T21:52:55.590Z,50.58
2022-10-07T21:55:22.155Z,49.80
2022-10-07T21:57:48.801Z,53.67
2022-10-07T22:00:16.028Z,47.97
2022-10-07T22:02:43.127Z,50.90
2022-10-07T22:05:11.584Z,52.05
2022-10-07T22:07:53.540Z,50.53
2022-10-07T22:10:20.135Z,51.97
2022-10-07T22:12:47.238Z,49.22
2022-10-07T22:15:14.286Z,50.78
2022-10-07T22:17:40.901Z,47.35
2022-10-07T22:20:09.498Z,44.53
2022-10-07T22:22:36.293Z,45.70
2022-10-07T22:25:03.067Z,44.45
2022-10-07T22:27:29.686Z,46.55
2022-10-07T22:29:56.322Z,46.22
2022-10-07T22:32:22.965Z,47.67
2022-10-07T22:35:04.733Z,45.90
2022-10-07T22:37:31.633Z,48.10
2022-10-07T22:39:58.334Z,51.72
2022-10-07T22:42:24.912Z,51.95
2022-10-07T22:44:51.501Z,51.08
2022-10-07T22:47:18.091Z,52.63
2022-10-07T22:49:44.766Z,47.83
2022-10-07T22:52:11.394Z,46.80
2022-10-07T22:54:38.044Z,46.00
2022-10-07T22:57:07.016Z,44.20
2022-10-07T22:59:34.321Z,44.05
2022-10-07T23:02:02.138Z,43.97
2022-10-07T23:04:28.712Z,43.78
2022-10-07T23:06:55.348Z,42.65
2022-10-07T23:09:22.019Z,41.75
2022-10-07T23:11:48.641Z,41.72
2022-10-07T23:14:15.233Z,41.88
2022-10-07T23:16:42.355Z,42.70
2022-10-07T23:19:09.345Z,41.15
2022-10-07T23:21:37.003Z,41.15
2022-10-07T23:24:07.636Z,41.78
2022-10-07T23:26:35.836Z,40.83
2022-10-07T23:29:03.260Z,40.72
2022-10-07T23:31:32.138Z,40.47
2022-10-07T23:34:00.772Z,42.85
2022-10-07T23:36:28.165Z,40.90
2022-10-07T23:38:55.208Z,42.58
2022-10-07T23:41:25.988Z,40.13
2022-10-07T23:43:54.350Z,44.35
2022-10-07T23:46:22.896Z,42.50
2022-10-07T23:48:50.430Z,41.17
2022-10-07T23:51:21.177Z,41.72
2022-10-07T23:53:48.575Z,40.20
2022-10-07T23:56:15.504Z,40.15
2022-10-07T23:58:42.184Z,40.03
